sensor_id;sensor_type;location;lat;lon;timestamp;temperature;humidity
24800;DHT22;12897;50.812;4.430;2023-06-26T00:00:19;23.60;99.90
24800;DHT22;12897;50.812;4.430;2023-06-26T00:02:47;23.50;99.90
24800;DHT22;12897;50.812;4.430;2023-06-26T00:05:15;23.40;99.90
24800;DHT22;12897;50.812;4.430;2023-06-26T00:08:01;23.30;99.90
24800;DHT22;12897;50.812;4.430;2023-06-26T00:10:30;23.30;99.90
24800;DHT22;12897;50.812;4.430;2023-06-26T00:13:00;23.30;99.90
24800;DHT22;12897;50.812;4.430;2023-06-26T00:15:29;23.30;99.90
24800;DHT22;12897;50.812;4.430;2023-06-26T00:17:59;23.20;99.90
24800;DHT22;12897;50.812;4.430;2023-06-26T00:20:27;23.10;99.90
24800;DHT22;12897;50.812;4.430;2023-06-26T00:22:54;22.90;99.90
24800;DHT22;12897;50.812;4.430;2023-06-26T00:25:24;22.80;99.90
24800;DHT22;12897;50.812;4.430;2023-06-26T00:27:52;22.80;99.90
24800;DHT22;12897;50.812;4.430;2023-06-26T00:30:20;22.70;99.90
24800;DHT22;12897;50.812;4.430;2023-06-26T00:33:06;22.60;99.90
24800;DHT22;12897;50.812;4.430;2023-06-26T00:35:34;22.50;99.90
24800;DHT22;12897;50.812;4.430;2023-06-26T00:38:02;22.40;99.90
24800;DHT22;12897;50.812;4.430;2023-06-26T00:40:34;22.40;99.90
24800;DHT22;12897;50.812;4.430;2023-06-26T00:43:04;22.40;99.90
24800;DHT22;12897;50.812;4.430;2023-06-26T00:45:32;22.30;99.90
24800;DHT22;12897;50.812;4.430;2023-06-26T00:48:02;22.30;99.90
24800;DHT22;12897;50.812;4.430;2023-06-26T00:50:30;22.40;99.90
24800;DHT22;12897;50.812;4.430;2023-06-26T00:52:59;22.10;99.90
24800;DHT22;12897;50.812;4.430;2023-06-26T00:55:28;22.10;99.90
24800;DHT22;12897;50.812;4.430;2023-06-26T00:57:56;22.00;99.90
24800;DHT22;12897;50.812;4.430;2023-06-26T01:00:24;21.90;99.90
24800;DHT22;12897;50.812;4.430;2023-06-26T01:02:51;21.80;99.90
24800;DHT22;12897;50.812;4.430;2023-06-26T01:05:20;21.90;99.90
24800;DHT22;12897;50.812;4.430;2023-06-26T01:07:49;21.90;99.90
24800;DHT22;12897;50.812;4.430;2023-06-26T01:10:17;21.90;99.90
24800;DHT22;12897;50.812;4.430;2023-06-26T01:12:46;21.80;99.90
24800;DHT22;12897;50.812;4.430;2023-06-26T01:15:13;21.80;99.90
24800;DHT22;12897;50.812;4.430;2023-06-26T01:17:43;21.80;99.90
24800;DHT22;12897;50.812;4.430;2023-06-26T01:20:12;21.70;99.90
24800;DHT22;12897;50.812;4.430;2023-06-26T01:25:35;21.60;99.90
24800;DHT22;12897;50.812;4.430;2023-06-26T01:28:03;21.70;99.90
24800;DHT22;12897;50.812;4.430;2023-06-26T01:30:32;21.60;99.90
24800;DHT22;12897;50.812;4.430;2023-06-26T01:33:02;21.50;99.90
24800;DHT22;12897;50.812;4.430;2023-06-26T01:35:30;21.40;99.90
24800;DHT22;12897;50.812;4.430;2023-06-26T01:38:18;21.40;99.90
24800;DHT22;12897;50.812;4.430;2023-06-26T01:40:46;21.50;99.90
24800;DHT22;12897;50.812;4.430;2023-06-26T01:46:04;21.30;99.90
24800;DHT22;12897;50.812;4.430;2023-06-26T01:48:29;21.40;99.90
24800;DHT22;12897;50.812;4.430;2023-06-26T01:51:03;21.40;99.90
24800;DHT22;12897;50.812;4.430;2023-06-26T01:53:32;21.30;99.90
24800;DHT22;12897;50.812;4.430;2023-06-26T01:56:08;21.20;99.90
24800;DHT22;12897;50.812;4.430;2023-06-26T01:58:39;21.20;99.90
24800;DHT22;12897;50.812;4.430;2023-06-26T02:01:09;21.30;99.90
24800;DHT22;12897;50.812;4.430;2023-06-26T02:03:37;21.20;99.90
24800;DHT22;12897;50.812;4.430;2023-06-26T02:06:05;21.10;99.90
24800;DHT22;12897;50.812;4.430;2023-06-26T02:08:32;21.00;99.90
24800;DHT22;12897;50.812;4.430;2023-06-26T02:11:00;21.00;99.90
24800;DHT22;12897;50.812;4.430;2023-06-26T02:13:27;20.90;99.90
24800;DHT22;12897;50.812;4.430;2023-06-26T02:15:55;20.90;99.90
24800;DHT22;12897;50.812;4.430;2023-06-26T02:18:24;20.90;99.90
24800;DHT22;12897;50.812;4.430;2023-06-26T02:20:51;20.80;99.90
24800;DHT22;12897;50.812;4.430;2023-06-26T02:23:19;20.70;99.90
24800;DHT22;12897;50.812;4.430;2023-06-26T02:25:48;20.70;99.90
24800;DHT22;12897;50.812;4.430;2023-06-26T02:28:17;20.70;99.90
24800;DHT22;12897;50.812;4.430;2023-06-26T02:30:45;20.60;99.90
24800;DHT22;12897;50.812;4.430;2023-06-26T02:33:12;20.60;99.90
24800;DHT22;12897;50.812;4.430;2023-06-26T02:35:40;20.60;99.90
24800;DHT22;12897;50.812;4.430;2023-06-26T02:38:09;20.50;99.90
24800;DHT22;12897;50.812;4.430;2023-06-26T02:40:40;20.50;99.90
24800;DHT22;12897;50.812;4.430;2023-06-26T02:43:08;20.50;99.90
24800;DHT22;12897;50.812;4.430;2023-06-26T02:45:36;20.50;99.90
24800;DHT22;12897;50.812;4.430;2023-06-26T02:48:05;20.50;99.90
24800;DHT22;12897;50.812;4.430;2023-06-26T02:50:34;20.50;99.90
24800;DHT22;12897;50.812;4.430;2023-06-26T02:53:02;20.60;99.90
24800;DHT22;12897;50.812;4.430;2023-06-26T02:55:30;20.50;99.90
24800;DHT22;12897;50.812;4.430;2023-06-26T02:57:58;20.50;99.90
24800;DHT22;12897;50.812;4.430;2023-06-26T03:00:25;20.60;99.90
24800;DHT22;12897;50.812;4.430;2023-06-26T03:02:53;20.40;99.90
24800;DHT22;12897;50.812;4.430;2023-06-26T03:05:22;20.20;99.90
24800;DHT22;12897;50.812;4.430;2023-06-26T03:10:41;20.20;99.90
24800;DHT22;12897;50.812;4.430;2023-06-26T03:13:10;20.20;99.90
24800;DHT22;12897;50.812;4.430;2023-06-26T03:15:38;20.10;99.90
24800;DHT22;12897;50.812;4.430;2023-06-26T03:18:06;20.10;99.90
24800;DHT22;12897;50.812;4.430;2023-06-26T03:20:36;20.00;99.90
24800;DHT22;12897;50.812;4.430;2023-06-26T03:23:15;20.10;99.90
24800;DHT22;12897;50.812;4.430;2023-06-26T03:25:44;19.90;99.90
24800;DHT22;12897;50.812;4.430;2023-06-26T03:28:13;19.90;99.90
24800;DHT22;12897;50.812;4.430;2023-06-26T03:30:40;19.80;99.90
24800;DHT22;12897;50.812;4.430;2023-06-26T03:33:08;19.90;99.90
24800;DHT22;12897;50.812;4.430;2023-06-26T03:35:35;19.70;99.90
24800;DHT22;12897;50.812;4.430;2023-06-26T03:38:04;19.70;99.90
24800;DHT22;12897;50.812;4.430;2023-06-26T03:40:32;19.70;99.90
24800;DHT22;12897;50.812;4.430;2023-06-26T03:43:00;19.60;99.90
24800;DHT22;12897;50.812;4.430;2023-06-26T03:45:30;19.60;99.90
24800;DHT22;12897;50.812;4.430;2023-06-26T03:47:57;19.50;99.90
24800;DHT22;12897;50.812;4.430;2023-06-26T03:50:26;19.60;99.90
24800;DHT22;12897;50.812;4.430;2023-06-26T03:52:57;19.50;99.90
24800;DHT22;12897;50.812;4.430;2023-06-26T03:58:10;19.50;99.90
24800;DHT22;12897;50.812;4.430;2023-06-26T04:00:38;19.50;99.90
24800;DHT22;12897;50.812;4.430;2023-06-26T04:03:07;19.40;99.90
24800;DHT22;12897;50.812;4.430;2023-06-26T04:05:36;19.40;99.90
24800;DHT22;12897;50.812;4.430;2023-06-26T04:08:04;19.40;99.90
24800;DHT22;12897;50.812;4.430;2023-06-26T04:10:31;19.40;99.90
24800;DHT22;12897;50.812;4.430;2023-06-26T04:13:01;19.40;99.90
24800;DHT22;12897;50.812;4.430;2023-06-26T04:15:28;19.40;99.90
24800;DHT22;12897;50.812;4.430;2023-06-26T04:17:55;19.40;99.90
24800;DHT22;12897;50.812;4.430;2023-06-26T04:20:23;19.40;99.90
24800;DHT22;12897;50.812;4.430;2023-06-26T04:22:52;19.30;99.90
24800;DHT22;12897;50.812;4.430;2023-06-26T04:25:19;19.40;99.90
24800;DHT22;12897;50.812;4.430;2023-06-26T04:27:49;19.40;99.90
24800;DHT22;12897;50.812;4.430;2023-06-26T04:30:16;19.40;99.90
24800;DHT22;12897;50.812;4.430;2023-06-26T04:32:52;19.50;99.90
24800;DHT22;12897;50.812;4.430;2023-06-26T04:35:16;19.50;99.90
24800;DHT22;12897;50.812;4.430;2023-06-26T04:37:44;19.40;99.90
24800;DHT22;12897;50.812;4.430;2023-06-26T04:40:12;19.30;99.90
24800;DHT22;12897;50.812;4.430;2023-06-26T04:42:40;19.30;99.90
24800;DHT22;12897;50.812;4.430;2023-06-26T04:45:08;19.40;99.90
24800;DHT22;12897;50.812;4.430;2023-06-26T04:47:35;19.40;99.90
24800;DHT22;12897;50.812;4.430;2023-06-26T04:50:03;19.40;99.90
24800;DHT22;12897;50.812;4.430;2023-06-26T04:52:31;19.30;99.90
24800;DHT22;12897;50.812;4.430;2023-06-26T04:54:58;19.30;99.90
24800;DHT22;12897;50.812;4.430;2023-06-26T04:57:26;19.20;99.90
24800;DHT22;12897;50.812;4.430;2023-06-26T04:59:54;19.30;99.90
24800;DHT22;12897;50.812;4.430;2023-06-26T05:02:22;19.20;99.90
24800;DHT22;12897;50.812;4.430;2023-06-26T05:04:50;19.20;99.90
24800;DHT22;12897;50.812;4.430;2023-06-26T05:07:18;19.20;99.90
24800;DHT22;12897;50.812;4.430;2023-06-26T05:09:46;19.20;99.90
24800;DHT22;12897;50.812;4.430;2023-06-26T05:12:15;19.20;99.90
24800;DHT22;12897;50.812;4.430;2023-06-26T05:14:43;19.20;99.90
24800;DHT22;12897;50.812;4.430;2023-06-26T05:17:14;19.20;99.90
24800;DHT22;12897;50.812;4.430;2023-06-26T05:19:41;19.50;99.90
24800;DHT22;12897;50.812;4.430;2023-06-26T05:22:12;20.10;99.90
24800;DHT22;12897;50.812;4.430;2023-06-26T05:24:40;20.70;99.90
24800;DHT22;12897;50.812;4.430;2023-06-26T05:27:09;21.30;99.90
24800;DHT22;12897;50.812;4.430;2023-06-26T05:29:38;21.60;99.90
24800;DHT22;12897;50.812;4.430;2023-06-26T05:32:08;21.80;99.90
24800;DHT22;12897;50.812;4.430;2023-06-26T05:34:36;22.00;99.90
24800;DHT22;12897;50.812;4.430;2023-06-26T05:37:10;21.80;99.90
24800;DHT22;12897;50.812;4.430;2023-06-26T05:39:40;22.10;99.90
24800;DHT22;12897;50.812;4.430;2023-06-26T05:42:08;22.40;99.90
24800;DHT22;12897;50.812;4.430;2023-06-26T05:44:39;22.50;99.90
24800;DHT22;12897;50.812;4.430;2023-06-26T05:47:13;22.80;99.90
24800;DHT22;12897;50.812;4.430;2023-06-26T05:49:40;23.10;99.90
24800;DHT22;12897;50.812;4.430;2023-06-26T05:52:11;23.30;99.90
24800;DHT22;12897;50.812;4.430;2023-06-26T05:54:38;23.40;99.90
24800;DHT22;12897;50.812;4.430;2023-06-26T05:57:06;23.90;99.90
24800;DHT22;12897;50.812;4.430;2023-06-26T05:59:34;23.90;99.90
24800;DHT22;12897;50.812;4.430;2023-06-26T06:02:08;23.70;99.90
24800;DHT22;12897;50.812;4.430;2023-06-26T06:04:36;23.30;99.90
24800;DHT22;12897;50.812;4.430;2023-06-26T06:07:06;23.00;99.90
24800;DHT22;12897;50.812;4.430;2023-06-26T06:09:37;22.80;99.90
24800;DHT22;12897;50.812;4.430;2023-06-26T06:12:08;22.50;99.90
24800;DHT22;12897;50.812;4.430;2023-06-26T06:14:36;22.70;99.90
24800;DHT22;12897;50.812;4.430;2023-06-26T06:17:07;22.90;99.90
24800;DHT22;12897;50.812;4.430;2023-06-26T06:19:39;23.20;99.90
24800;DHT22;12897;50.812;4.430;2023-06-26T06:22:09;22.90;99.90
24800;DHT22;12897;50.812;4.430;2023-06-26T06:24:39;23.20;99.90
24800;DHT22;12897;50.812;4.430;2023-06-26T06:27:08;23.50;99.90
24800;DHT22;12897;50.812;4.430;2023-06-26T06:29:37;23.50;99.90
24800;DHT22;12897;50.812;4.430;2023-06-26T06:32:05;23.20;99.90
24800;DHT22;12897;50.812;4.430;2023-06-26T06:34:34;22.70;99.90
24800;DHT22;12897;50.812;4.430;2023-06-26T06:37:04;22.90;99.90
24800;DHT22;12897;50.812;4.430;2023-06-26T06:39:32;23.00;99.90
24800;DHT22;12897;50.812;4.430;2023-06-26T06:42:00;22.80;99.90
24800;DHT22;12897;50.812;4.430;2023-06-26T06:44:29;22.50;99.90
24800;DHT22;12897;50.812;4.430;2023-06-26T06:46:57;22.30;99.90
24800;DHT22;12897;50.812;4.430;2023-06-26T06:49:29;22.50;99.90
24800;DHT22;12897;50.812;4.430;2023-06-26T06:51:57;22.60;99.90
24800;DHT22;12897;50.812;4.430;2023-06-26T06:54:26;22.80;99.90
24800;DHT22;12897;50.812;4.430;2023-06-26T06:56:57;22.50;99.90
24800;DHT22;12897;50.812;4.430;2023-06-26T06:59:26;22.40;99.90
24800;DHT22;12897;50.812;4.430;2023-06-26T07:02:01;22.40;99.90
24800;DHT22;12897;50.812;4.430;2023-06-26T07:04:30;22.10;99.90
24800;DHT22;12897;50.812;4.430;2023-06-26T07:06:57;22.00;99.90
24800;DHT22;12897;50.812;4.430;2023-06-26T07:09:25;22.20;99.90
24800;DHT22;12897;50.812;4.430;2023-06-26T07:11:53;22.10;99.90
24800;DHT22;12897;50.812;4.430;2023-06-26T07:14:22;22.10;99.90
24800;DHT22;12897;50.812;4.430;2023-06-26T07:16:55;22.20;99.90
24800;DHT22;12897;50.812;4.430;2023-06-26T07:19:23;22.40;99.90
24800;DHT22;12897;50.812;4.430;2023-06-26T07:21:55;22.60;99.90
24800;DHT22;12897;50.812;4.430;2023-06-26T07:24:26;22.60;99.90
24800;DHT22;12897;50.812;4.430;2023-06-26T07:26:59;22.30;99.90
24800;DHT22;12897;50.812;4.430;2023-06-26T07:29:29;22.20;99.90
24800;DHT22;12897;50.812;4.430;2023-06-26T07:32:02;22.10;99.90
24800;DHT22;12897;50.812;4.430;2023-06-26T07:34:30;22.20;99.90
24800;DHT22;12897;50.812;4.430;2023-06-26T07:36:57;22.30;99.90
24800;DHT22;12897;50.812;4.430;2023-06-26T07:39:25;22.20;99.90
24800;DHT22;12897;50.812;4.430;2023-06-26T07:41:53;22.10;99.90
24800;DHT22;12897;50.812;4.430;2023-06-26T07:44:25;21.90;99.90
24800;DHT22;12897;50.812;4.430;2023-06-26T07:46:52;22.20;99.90
24800;DHT22;12897;50.812;4.430;2023-06-26T07:49:22;22.20;99.90
24800;DHT22;12897;50.812;4.430;2023-06-26T07:51:57;22.20;99.90
24800;DHT22;12897;50.812;4.430;2023-06-26T07:54:23;22.30;99.90
24800;DHT22;12897;50.812;4.430;2023-06-26T07:56:59;22.30;99.90
24800;DHT22;12897;50.812;4.430;2023-06-26T07:59:30;22.40;99.90
24800;DHT22;12897;50.812;4.430;2023-06-26T08:02:01;22.60;99.90
24800;DHT22;12897;50.812;4.430;2023-06-26T08:04:33;22.40;99.90
24800;DHT22;12897;50.812;4.430;2023-06-26T08:07:06;22.40;99.90
24800;DHT22;12897;50.812;4.430;2023-06-26T08:09:36;22.40;99.90
24800;DHT22;12897;50.812;4.430;2023-06-26T08:12:04;22.40;99.90
24800;DHT22;12897;50.812;4.430;2023-06-26T08:14:47;22.50;99.90
24800;DHT22;12897;50.812;4.430;2023-06-26T08:17:06;22.50;99.90
24800;DHT22;12897;50.812;4.430;2023-06-26T08:19:43;22.70;99.90
24800;DHT22;12897;50.812;4.430;2023-06-26T08:22:11;22.80;99.90
24800;DHT22;12897;50.812;4.430;2023-06-26T08:24:42;22.80;99.90
24800;DHT22;12897;50.812;4.430;2023-06-26T08:27:15;22.90;99.90
24800;DHT22;12897;50.812;4.430;2023-06-26T08:29:43;22.70;99.90
24800;DHT22;12897;50.812;4.430;2023-06-26T08:32:12;22.70;99.90
24800;DHT22;12897;50.812;4.430;2023-06-26T08:34:45;22.80;99.90
24800;DHT22;12897;50.812;4.430;2023-06-26T08:37:20;22.80;99.90
24800;DHT22;12897;50.812;4.430;2023-06-26T08:39:49;22.80;99.90
24800;DHT22;12897;50.812;4.430;2023-06-26T08:42:20;22.90;99.90
24800;DHT22;12897;50.812;4.430;2023-06-26T08:44:46;22.70;99.90
24800;DHT22;12897;50.812;4.430;2023-06-26T08:47:16;22.80;99.90
24800;DHT22;12897;50.812;4.430;2023-06-26T08:49:56;22.90;99.90
24800;DHT22;12897;50.812;4.430;2023-06-26T08:52:38;22.70;99.90
24800;DHT22;12897;50.812;4.430;2023-06-26T08:55:09;22.60;99.90
24800;DHT22;12897;50.812;4.430;2023-06-26T08:57:38;22.80;99.90
24800;DHT22;12897;50.812;4.430;2023-06-26T09:00:08;22.70;99.90
24800;DHT22;12897;50.812;4.430;2023-06-26T09:02:37;22.70;99.90
24800;DHT22;12897;50.812;4.430;2023-06-26T09:05:18;22.90;99.90
24800;DHT22;12897;50.812;4.430;2023-06-26T09:07:42;23.10;99.90
24800;DHT22;12897;50.812;4.430;2023-06-26T09:10:11;23.10;99.90
24800;DHT22;12897;50.812;4.430;2023-06-26T09:12:45;23.00;99.90
24800;DHT22;12897;50.812;4.430;2023-06-26T09:15:15;23.00;99.90
24800;DHT22;12897;50.812;4.430;2023-06-26T09:17:48;23.10;99.90
24800;DHT22;12897;50.812;4.430;2023-06-26T09:20:18;23.20;99.90
24800;DHT22;12897;50.812;4.430;2023-06-26T09:22:47;23.40;99.90
24800;DHT22;12897;50.812;4.430;2023-06-26T09:25:21;23.10;99.90
24800;DHT22;12897;50.812;4.430;2023-06-26T09:27:49;23.10;99.90
24800;DHT22;12897;50.812;4.430;2023-06-26T09:30:17;22.90;99.90
24800;DHT22;12897;50.812;4.430;2023-06-26T09:32:46;23.00;99.90
24800;DHT22;12897;50.812;4.430;2023-06-26T09:35:17;23.00;99.90
24800;DHT22;12897;50.812;4.430;2023-06-26T09:37:46;22.90;99.90
24800;DHT22;12897;50.812;4.430;2023-06-26T09:40:16;22.60;99.90
24800;DHT22;12897;50.812;4.430;2023-06-26T09:42:45;22.70;99.90
24800;DHT22;12897;50.812;4.430;2023-06-26T09:45:17;22.90;99.90
24800;DHT22;12897;50.812;4.430;2023-06-26T09:47:52;23.00;99.90
24800;DHT22;12897;50.812;4.430;2023-06-26T09:50:23;22.80;99.90
24800;DHT22;12897;50.812;4.430;2023-06-26T09:53:13;22.70;99.90
24800;DHT22;12897;50.812;4.430;2023-06-26T09:55:40;22.80;99.90
24800;DHT22;12897;50.812;4.430;2023-06-26T09:58:11;23.10;99.90
24800;DHT22;12897;50.812;4.430;2023-06-26T10:00:41;23.30;99.90
24800;DHT22;12897;50.812;4.430;2023-06-26T10:03:11;23.40;99.90
24800;DHT22;12897;50.812;4.430;2023-06-26T10:05:40;23.10;99.90
24800;DHT22;12897;50.812;4.430;2023-06-26T10:08:11;22.90;99.90
24800;DHT22;12897;50.812;4.430;2023-06-26T10:10:41;23.00;99.90
24800;DHT22;12897;50.812;4.430;2023-06-26T10:13:15;23.30;99.90
24800;DHT22;12897;50.812;4.430;2023-06-26T10:15:43;23.60;99.90
24800;DHT22;12897;50.812;4.430;2023-06-26T10:18:15;23.40;99.90
24800;DHT22;12897;50.812;4.430;2023-06-26T10:20:46;23.40;99.90
24800;DHT22;12897;50.812;4.430;2023-06-26T10:23:17;23.30;99.90
24800;DHT22;12897;50.812;4.430;2023-06-26T10:25:48;22.90;99.70
24800;DHT22;12897;50.812;4.430;2023-06-26T10:28:17;22.60;99.90
24800;DHT22;12897;50.812;4.430;2023-06-26T10:30:48;22.70;99.90
24800;DHT22;12897;50.812;4.430;2023-06-26T10:33:18;22.90;99.90
24800;DHT22;12897;50.812;4.430;2023-06-26T10:35:46;23.00;99.90
24800;DHT22;12897;50.812;4.430;2023-06-26T10:38:20;23.20;99.90
24800;DHT22;12897;50.812;4.430;2023-06-26T10:40:49;23.00;99.80
24800;DHT22;12897;50.812;4.430;2023-06-26T10:43:19;23.20;99.90
24800;DHT22;12897;50.812;4.430;2023-06-26T10:45:48;23.60;99.50
24800;DHT22;12897;50.812;4.430;2023-06-26T10:48:18;23.50;99.70
24800;DHT22;12897;50.812;4.430;2023-06-26T10:50:47;23.50;99.90
24800;DHT22;12897;50.812;4.430;2023-06-26T10:56:01;23.80;99.90
24800;DHT22;12897;50.812;4.430;2023-06-26T10:58:31;23.80;99.90
24800;DHT22;12897;50.812;4.430;2023-06-26T11:01:16;24.10;99.90
24800;DHT22;12897;50.812;4.430;2023-06-26T11:06:31;23.70;98.80
24800;DHT22;12897;50.812;4.430;2023-06-26T11:09:09;23.90;98.70
24800;DHT22;12897;50.812;4.430;2023-06-26T11:12:00;23.80;98.10
24800;DHT22;12897;50.812;4.430;2023-06-26T11:14:27;24.20;98.10
24800;DHT22;12897;50.812;4.430;2023-06-26T11:17:04;24.60;95.40
24800;DHT22;12897;50.812;4.430;2023-06-26T11:19:39;24.50;95.30
24800;DHT22;12897;50.812;4.430;2023-06-26T11:22:12;24.50;95.50
24800;DHT22;12897;50.812;4.430;2023-06-26T11:24:45;24.30;94.40
24800;DHT22;12897;50.812;4.430;2023-06-26T11:27:13;24.30;95.30
24800;DHT22;12897;50.812;4.430;2023-06-26T11:29:52;24.50;94.90
24800;DHT22;12897;50.812;4.430;2023-06-26T11:32:19;24.80;93.80
24800;DHT22;12897;50.812;4.430;2023-06-26T11:34:48;24.90;93.00
24800;DHT22;12897;50.812;4.430;2023-06-26T11:37:22;24.90;93.30
24800;DHT22;12897;50.812;4.430;2023-06-26T11:39:52;24.90;93.50
24800;DHT22;12897;50.812;4.430;2023-06-26T11:42:25;24.60;93.70
24800;DHT22;12897;50.812;4.430;2023-06-26T11:44:51;24.40;94.10
24800;DHT22;12897;50.812;4.430;2023-06-26T11:47:24;24.30;93.80
24800;DHT22;12897;50.812;4.430;2023-06-26T11:49:56;24.20;94.40
24800;DHT22;12897;50.812;4.430;2023-06-26T11:52:27;24.10;94.10
24800;DHT22;12897;50.812;4.430;2023-06-26T11:54:54;24.40;93.20
24800;DHT22;12897;50.812;4.430;2023-06-26T11:57:24;24.50;92.60
24800;DHT22;12897;50.812;4.430;2023-06-26T11:59:54;24.50;93.00
24800;DHT22;12897;50.812;4.430;2023-06-26T12:02:23;24.40;92.30
24800;DHT22;12897;50.812;4.430;2023-06-26T12:05:00;24.30;92.60
24800;DHT22;12897;50.812;4.430;2023-06-26T12:07:25;24.10;92.70
24800;DHT22;12897;50.812;4.430;2023-06-26T12:09:55;24.10;93.20
24800;DHT22;12897;50.812;4.430;2023-06-26T12:12:30;23.80;93.40
24800;DHT22;12897;50.812;4.430;2023-06-26T12:15:00;23.80;93.30
24800;DHT22;12897;50.812;4.430;2023-06-26T12:17:37;23.90;92.10
24800;DHT22;12897;50.812;4.430;2023-06-26T12:20:25;23.90;91.00
24800;DHT22;12897;50.812;4.430;2023-06-26T12:22:52;24.00;90.20
24800;DHT22;12897;50.812;4.430;2023-06-26T12:25:36;24.00;87.80
24800;DHT22;12897;50.812;4.430;2023-06-26T12:27:52;23.90;87.20
24800;DHT22;12897;50.812;4.430;2023-06-26T12:30:21;24.20;88.60
24800;DHT22;12897;50.812;4.430;2023-06-26T12:32:52;24.40;86.50
24800;DHT22;12897;50.812;4.430;2023-06-26T12:35:25;24.60;85.30
24800;DHT22;12897;50.812;4.430;2023-06-26T12:37:54;24.80;85.40
24800;DHT22;12897;50.812;4.430;2023-06-26T12:40:23;24.90;85.80
24800;DHT22;12897;50.812;4.430;2023-06-26T12:42:54;24.80;85.50
24800;DHT22;12897;50.812;4.430;2023-06-26T12:45:23;24.40;86.30
24800;DHT22;12897;50.812;4.430;2023-06-26T12:47:52;24.40;87.30
24800;DHT22;12897;50.812;4.430;2023-06-26T12:50:21;24.30;88.20
24800;DHT22;12897;50.812;4.430;2023-06-26T12:53:12;24.20;86.80
24800;DHT22;12897;50.812;4.430;2023-06-26T12:55:28;24.20;83.30
24800;DHT22;12897;50.812;4.430;2023-06-26T12:57:55;24.30;85.50
24800;DHT22;12897;50.812;4.430;2023-06-26T13:00:30;24.30;84.90
24800;DHT22;12897;50.812;4.430;2023-06-26T13:02:58;24.70;83.20
24800;DHT22;12897;50.812;4.430;2023-06-26T13:05:28;24.90;82.70
24800;DHT22;12897;50.812;4.430;2023-06-26T13:07:56;25.00;81.70
24800;DHT22;12897;50.812;4.430;2023-06-26T13:10:26;25.00;81.10
24800;DHT22;12897;50.812;4.430;2023-06-26T13:12:55;25.10;82.10
24800;DHT22;12897;50.812;4.430;2023-06-26T13:15:23;25.20;82.90
24800;DHT22;12897;50.812;4.430;2023-06-26T13:17:51;25.30;83.40
24800;DHT22;12897;50.812;4.430;2023-06-26T13:20:20;25.30;82.30
24800;DHT22;12897;50.812;4.430;2023-06-26T13:22:54;25.00;81.80
24800;DHT22;12897;50.812;4.430;2023-06-26T13:25:23;25.10;82.40
24800;DHT22;12897;50.812;4.430;2023-06-26T13:30:44;24.80;82.10
24800;DHT22;12897;50.812;4.430;2023-06-26T13:33:06;24.70;84.50
24800;DHT22;12897;50.812;4.430;2023-06-26T13:35:39;24.70;84.10
24800;DHT22;12897;50.812;4.430;2023-06-26T13:40:51;24.80;83.70
24800;DHT22;12897;50.812;4.430;2023-06-26T13:43:17;24.70;83.70
24800;DHT22;12897;50.812;4.430;2023-06-26T13:46:05;24.80;83.50
24800;DHT22;12897;50.812;4.430;2023-06-26T13:48:38;24.90;83.60
24800;DHT22;12897;50.812;4.430;2023-06-26T13:51:09;24.80;82.80
24800;DHT22;12897;50.812;4.430;2023-06-26T13:53:52;24.80;82.10
24800;DHT22;12897;50.812;4.430;2023-06-26T13:56:25;25.10;83.30
24800;DHT22;12897;50.812;4.430;2023-06-26T13:58:55;25.50;84.10
24800;DHT22;12897;50.812;4.430;2023-06-26T14:01:21;25.50;83.30
24800;DHT22;12897;50.812;4.430;2023-06-26T14:03:50;25.60;83.40
24800;DHT22;12897;50.812;4.430;2023-06-26T14:06:22;25.50;82.50
24800;DHT22;12897;50.812;4.430;2023-06-26T14:08:55;25.40;82.10
24800;DHT22;12897;50.812;4.430;2023-06-26T14:11:27;25.30;80.90
24800;DHT22;12897;50.812;4.430;2023-06-26T14:14:02;25.50;81.20
24800;DHT22;12897;50.812;4.430;2023-06-26T14:16:36;25.70;80.90
24800;DHT22;12897;50.812;4.430;2023-06-26T14:19:06;25.70;79.30
24800;DHT22;12897;50.812;4.430;2023-06-26T14:21:39;25.90;77.90
24800;DHT22;12897;50.812;4.430;2023-06-26T14:24:10;25.70;77.40
24800;DHT22;12897;50.812;4.430;2023-06-26T14:26:44;25.70;76.50
24800;DHT22;12897;50.812;4.430;2023-06-26T14:29:13;25.70;77.20
24800;DHT22;12897;50.812;4.430;2023-06-26T14:31:49;25.70;77.20
24800;DHT22;12897;50.812;4.430;2023-06-26T14:36:47;25.50;75.20
24800;DHT22;12897;50.812;4.430;2023-06-26T14:39:20;25.20;76.00
24800;DHT22;12897;50.812;4.430;2023-06-26T14:41:48;25.20;76.70
24800;DHT22;12897;50.812;4.430;2023-06-26T14:44:19;25.40;76.00
24800;DHT22;12897;50.812;4.430;2023-06-26T14:46:51;25.30;73.60
24800;DHT22;12897;50.812;4.430;2023-06-26T14:49:20;25.10;74.10
24800;DHT22;12897;50.812;4.430;2023-06-26T14:51:51;25.10;73.70
24800;DHT22;12897;50.812;4.430;2023-06-26T14:54:25;25.10;72.70
24800;DHT22;12897;50.812;4.430;2023-06-26T14:56:54;25.20;72.10
24800;DHT22;12897;50.812;4.430;2023-06-26T14:59:27;25.40;72.20
24800;DHT22;12897;50.812;4.430;2023-06-26T15:01:54;25.20;72.90
24800;DHT22;12897;50.812;4.430;2023-06-26T15:04:33;25.10;73.70
24800;DHT22;12897;50.812;4.430;2023-06-26T15:07:01;25.10;75.00
24800;DHT22;12897;50.812;4.430;2023-06-26T15:09:38;24.90;75.50
24800;DHT22;12897;50.812;4.430;2023-06-26T15:12:16;24.90;76.40
24800;DHT22;12897;50.812;4.430;2023-06-26T15:14:33;24.90;75.80
24800;DHT22;12897;50.812;4.430;2023-06-26T15:17:05;24.90;77.20
24800;DHT22;12897;50.812;4.430;2023-06-26T15:19:36;24.90;78.00
24800;DHT22;12897;50.812;4.430;2023-06-26T15:22:10;25.00;79.00
24800;DHT22;12897;50.812;4.430;2023-06-26T15:24:45;25.10;78.50
24800;DHT22;12897;50.812;4.430;2023-06-26T15:27:27;25.00;77.20
24800;DHT22;12897;50.812;4.430;2023-06-26T15:32:36;24.80;78.90
24800;DHT22;12897;50.812;4.430;2023-06-26T15:35:05;24.70;80.10
24800;DHT22;12897;50.812;4.430;2023-06-26T15:37:35;24.70;81.70
24800;DHT22;12897;50.812;4.430;2023-06-26T15:40:08;24.70;81.50
24800;DHT22;12897;50.812;4.430;2023-06-26T15:42:48;24.80;80.70
24800;DHT22;12897;50.812;4.430;2023-06-26T15:45:14;24.70;80.60
24800;DHT22;12897;50.812;4.430;2023-06-26T15:47:47;24.70;81.50
24800;DHT22;12897;50.812;4.430;2023-06-26T15:50:25;24.70;80.50
24800;DHT22;12897;50.812;4.430;2023-06-26T15:52:50;24.70;81.10
24800;DHT22;12897;50.812;4.430;2023-06-26T15:55:19;24.70;82.10
24800;DHT22;12897;50.812;4.430;2023-06-26T15:57:48;24.60;82.20
24800;DHT22;12897;50.812;4.430;2023-06-26T16:00:22;24.40;83.30
24800;DHT22;12897;50.812;4.430;2023-06-26T16:02:48;24.40;82.90
24800;DHT22;12897;50.812;4.430;2023-06-26T16:05:19;24.30;82.50
24800;DHT22;12897;50.812;4.430;2023-06-26T16:07:47;24.40;82.20
24800;DHT22;12897;50.812;4.430;2023-06-26T16:10:14;24.50;82.20
24800;DHT22;12897;50.812;4.430;2023-06-26T16:12:43;24.50;83.50
24800;DHT22;12897;50.812;4.430;2023-06-26T16:15:15;24.40;82.00